createdAt,value
2022-11-02T00:00:53.642Z,995.72
2022-11-02T00:01:55.489Z,995.7
2022-11-02T00:02:57.314Z,995.66
2022-11-02T00:03:58.844Z,995.65
2022-11-02T00:05:00.591Z,995.68
2022-11-02T00:06:02.311Z,995.59
2022-11-02T00:07:04.093Z,995.65
2022-11-02T00:08:05.807Z,995.61
2022-11-02T00:09:07.532Z,995.61
2022-11-02T00:10:09.267Z,995.62
2022-11-02T00:11:10.986Z,995.69
2022-11-02T00:12:12.766Z,995.65
2022-11-02T00:13:14.455Z,995.65
2022-11-02T00:14:16.193Z,995.61
2022-11-02T00:15:17.936Z,995.64
2022-11-02T00:16:19.658Z,995.61
2022-11-02T00:17:21.390Z,995.6
2022-11-02T00:18:23.120Z,995.6
2022-11-02T00:19:24.871Z,995.59
2022-11-02T00:20:26.624Z,995.56
2022-11-02T00:21:28.338Z,995.61
2022-11-02T00:22:30.063Z,995.59
2022-11-02T00:23:31.807Z,995.6
2022-11-02T00:24:33.542Z,995.55
2022-11-02T00:25:35.281Z,995.52
2022-11-02T00:26:36.999Z,995.48
2022-11-02T00:27:38.753Z,995.52
2022-11-02T00:28:40.358Z,995.53
2022-11-02T00:29:42.094Z,995.56
2022-11-02T00:30:43.838Z,995.55
2022-11-02T00:31:45.583Z,995.52
2022-11-02T00:32:47.318Z,995.55
2022-11-02T00:33:49.051Z,995.49
2022-11-02T00:34:50.794Z,995.52
2022-11-02T00:35:52.509Z,995.46
2022-11-02T00:36:55.592Z,995.54
2022-11-02T00:37:55.975Z,995.47
2022-11-02T00:38:57.699Z,995.55
2022-11-02T00:39:59.442Z,995.59
2022-11-02T00:41:01.177Z,995.54
2022-11-02T00:42:02.918Z,995.57
2022-11-02T00:43:04.633Z,995.52
2022-11-02T00:44:06.369Z,995.54
2022-11-02T00:45:08.119Z,995.55
2022-11-02T00:46:09.883Z,995.54
2022-11-02T00:47:11.585Z,995.54
2022-11-02T00:48:13.345Z,995.54
2022-11-02T00:49:15.049Z,995.57
2022-11-02T00:50:16.789Z,995.56
2022-11-02T00:51:18.539Z,995.56
2022-11-02T00:52:20.275Z,995.55
2022-11-02T00:53:22.021Z,995.59
2022-11-02T00:54:25.972Z,995.52
2022-11-02T00:55:25.454Z,995.53
2022-11-02T00:56:27.200Z,995.56
2022-11-02T00:57:28.903Z,995.52
2022-11-02T00:58:30.647Z,995.59
2022-11-02T00:59:32.407Z,995.56
2022-11-02T01:00:34.111Z,995.53
2022-11-02T01:01:35.946Z,995.51
2022-11-02T01:02:37.724Z,995.55
2022-11-02T01:03:39.344Z,995.57
2022-11-02T01:04:41.045Z,995.53
2022-11-02T01:05:42.818Z,995.59
2022-11-02T01:06:44.559Z,995.56
2022-11-02T01:07:46.281Z,995.57
2022-11-02T01:08:48.029Z,995.55
2022-11-02T01:09:49.730Z,995.57
2022-11-02T01:10:51.492Z,995.62
2022-11-02T01:11:53.201Z,995.63
2022-11-02T01:12:54.941Z,995.61
2022-11-02T01:13:56.706Z,995.64
2022-11-02T01:14:58.413Z,995.62
2022-11-02T01:16:00.170Z,995.6
2022-11-02T01:17:01.880Z,995.63
2022-11-02T01:18:03.922Z,995.65
2022-11-02T01:19:05.386Z,995.62
2022-11-02T01:20:07.099Z,995.61
2022-11-02T01:21:08.858Z,995.63
2022-11-02T01:22:10.577Z,995.61
2022-11-02T01:23:12.287Z,995.57
2022-11-02T01:24:14.027Z,995.6
2022-11-02T01:25:15.749Z,995.65
2022-11-02T01:26:17.474Z,995.65
2022-11-02T01:27:19.258Z,995.67
2022-11-02T01:28:20.979Z,995.61
2022-11-02T01:29:22.718Z,995.62
2022-11-02T01:30:24.431Z,995.6
2022-11-02T01:31:26.154Z,995.59
2022-11-02T01:32:27.928Z,995.54
2022-11-02T01:33:29.628Z,995.55
2022-11-02T01:34:31.369Z,995.52
2022-11-02T01:35:33.092Z,995.48
2022-11-02T01:36:34.822Z,995.52
2022-11-02T01:37:36.578Z,995.51
2022-11-02T01:38:38.296Z,995.56
2022-11-02T01:39:40.043Z,995.57
2022-11-02T01:40:41.803Z,995.51
2022-11-02T01:41:43.525Z,995.55
2022-11-02T01:42:45.265Z,995.51
2022-11-02T01:43:47.004Z,995.53
2022-11-02T01:44:48.727Z,995.51
2022-11-02T01:45:50.444Z,995.53
2022-11-02T01:46:52.167Z,995.53
2022-11-02T01:47:53.942Z,995.5
2022-11-02T01:48:55.663Z,995.46
2022-11-02T01:49:57.374Z,995.47
2022-11-02T01:50:59.104Z,995.47
2022-11-02T01:52:00.842Z,995.38
2022-11-02T01:53:02.609Z,995.45
2022-11-02T01:54:04.321Z,995.38
2022-11-02T01:55:06.087Z,995.4
2022-11-02T01:56:07.813Z,995.35
2022-11-02T01:57:09.511Z,995.36
2022-11-02T01:58:11.252Z,995.32
2022-11-02T01:59:13.011Z,995.29
2022-11-02T02:00:14.712Z,995.32
2022-11-02T02:01:16.625Z,995.31
2022-11-02T02:02:18.382Z,995.32
2022-11-02T02:03:19.920Z,995.29
2022-11-02T02:04:21.645Z,995.28
2022-11-02T02:05:23.425Z,995.33
2022-11-02T02:06:25.113Z,995.31
2022-11-02T02:07:26.876Z,995.33
2022-11-02T02:08:28.617Z,995.33
2022-11-02T02:09:30.353Z,995.28
2022-11-02T02:10:32.082Z,995.26
2022-11-02T02:11:33.788Z,995.23
2022-11-02T02:12:35.523Z,995.19
2022-11-02T02:13:37.293Z,995.24
2022-11-02T02:14:39.007Z,995.2
2022-11-02T02:15:40.723Z,995.22
2022-11-02T02:16:42.496Z,995.17
2022-11-02T02:17:44.194Z,995.19
2022-11-02T02:18:45.926Z,995.21
2022-11-02T02:19:47.665Z,995.25
2022-11-02T02:20:49.412Z,995.25
2022-11-02T02:21:51.162Z,995.26
2022-11-02T02:22:52.881Z,995.21
2022-11-02T02:23:54.616Z,995.26
2022-11-02T02:24:56.332Z,995.26
2022-11-02T02:25:58.094Z,995.24
2022-11-02T02:26:59.809Z,995.23
2022-11-02T02:28:01.908Z,995.26
2022-11-02T02:29:03.300Z,995.25
2022-11-02T02:30:05.002Z,995.25
2022-11-02T02:31:06.781Z,995.24
2022-11-02T02:32:08.508Z,995.23
2022-11-02T02:33:10.237Z,995.24
2022-11-02T02:34:11.945Z,995.18
2022-11-02T02:35:13.676Z,995.23
2022-11-02T02:36:15.405Z,995.23
2022-11-02T02:37:17.138Z,995.16
2022-11-02T02:38:18.884Z,995.23
2022-11-02T02:39:20.644Z,995.17
2022-11-02T02:40:22.386Z,995.12
2022-11-02T02:41:24.082Z,995.13
2022-11-02T02:42:25.824Z,995.11
2022-11-02T02:43:27.606Z,995.1
2022-11-02T02:44:29.308Z,995.13
2022-11-02T02:45:31.007Z,995.19
2022-11-02T02:46:34.612Z,995.2
2022-11-02T02:47:34.537Z,995.19
2022-11-02T02:48:36.216Z,995.21
2022-11-02T02:49:37.984Z,995.22
2022-11-02T02:50:39.691Z,995.26
2022-11-02T02:51:41.417Z,995.26
2022-11-02T02:52:43.161Z,995.2
2022-11-02T02:53:44.895Z,995.22
2022-11-02T02:54:46.620Z,995.24
2022-11-02T02:55:48.362Z,995.26
2022-11-02T02:56:50.104Z,995.3
2022-11-02T02:57:51.834Z,995.32
2022-11-02T02:58:53.571Z,995.3
2022-11-02T02:59:55.306Z,995.33
2022-11-02T03:00:57.100Z,995.28
2022-11-02T03:01:58.921Z,995.36
2022-11-02T03:03:00.504Z,995.34
2022-11-02T03:04:02.235Z,995.29
2022-11-02T03:05:03.984Z,995.35
2022-11-02T03:06:05.726Z,995.28
2022-11-02T03:07:07.448Z,995.28
2022-11-02T03:08:09.182Z,995.24
2022-11-02T03:09:10.927Z,995.28
2022-11-02T03:10:12.647Z,995.29
2022-11-02T03:11:14.385Z,995.25
2022-11-02T03:12:16.119Z,995.27
2022-11-02T03:13:17.828Z,995.3
2022-11-02T03:14:19.587Z,995.29
2022-11-02T03:15:21.330Z,995.31
2022-11-02T03:16:23.060Z,995.28
2022-11-02T03:17:24.798Z,995.25
2022-11-02T03:18:26.524Z,995.2
2022-11-02T03:19:28.284Z,995.18
2022-11-02T03:20:29.997Z,995.19
2022-11-02T03:21:31.760Z,995.24
2022-11-02T03:22:33.464Z,995.25
2022-11-02T03:23:35.197Z,995.23
2022-11-02T03:24:36.932Z,995.3
2022-11-02T03:25:38.679Z,995.29
2022-11-02T03:26:40.416Z,995.31
2022-11-02T03:27:42.163Z,995.35
2022-11-02T03:28:43.868Z,995.3
2022-11-02T03:29:45.588Z,995.25
2022-11-02T03:30:47.345Z,995.25
2022-11-02T03:31:49.098Z,995.26
2022-11-02T03:32:50.824Z,995.29
2022-11-02T03:33:52.554Z,995.3
2022-11-02T03:34:54.285Z,995.35
2022-11-02T03:35:56.016Z,995.36
2022-11-02T03:36:57.890Z,995.3
2022-11-02T03:37:59.501Z,995.33
2022-11-02T03:39:01.237Z,995.32
2022-11-02T03:40:02.977Z,995.35
2022-11-02T03:41:04.695Z,995.32
2022-11-02T03:42:06.434Z,995.29
2022-11-02T03:43:08.140Z,995.34
2022-11-02T03:44:09.923Z,995.38
2022-11-02T03:45:11.636Z,995.3
2022-11-02T03:46:13.395Z,995.36
2022-11-02T03:47:15.111Z,995.38
2022-11-02T03:48:16.817Z,995.43
2022-11-02T03:49:18.578Z,995.37
2022-11-02T03:50:20.331Z,995.3
2022-11-02T03:51:22.071Z,995.39
2022-11-02T03:52:23.782Z,995.39
2022-11-02T03:53:25.540Z,995.44
2022-11-02T03:54:27.255Z,995.41
2022-11-02T03:55:28.994Z,995.36
2022-11-02T03:56:30.753Z,995.43
2022-11-02T03:57:32.461Z,995.45
2022-11-02T03:58:34.220Z,995.4
2022-11-02T03:59:35.942Z,995.47
2022-11-02T04:00:37.649Z,995.52
2022-11-02T04:01:39.533Z,995.53
2022-11-02T04:02:41.247Z,995.51
2022-11-02T04:03:42.932Z,995.54
2022-11-02T04:04:44.585Z,995.58
2022-11-02T04:05:46.350Z,995.63
2022-11-02T04:06:48.058Z,995.69
2022-11-02T04:07:50.048Z,995.63
2022-11-02T04:08:51.518Z,995.64
2022-11-02T04:09:53.270Z,995.6
2022-11-02T04:10:55.013Z,995.59
2022-11-02T04:11:56.761Z,995.59
2022-11-02T04:12:58.458Z,995.61
2022-11-02T04:14:00.215Z,995.58
2022-11-02T04:15:01.955Z,995.64
2022-11-02T04:16:03.704Z,995.62
2022-11-02T04:17:05.429Z,995.63
2022-11-02T04:18:07.447Z,995.65
2022-11-02T04:19:08.874Z,995.68
2022-11-02T04:20:10.630Z,995.7
2022-11-02T04:21:12.333Z,995.71
2022-11-02T04:22:14.109Z,995.63
2022-11-02T04:23:15.800Z,995.66
2022-11-02T04:24:17.579Z,995.63
2022-11-02T04:25:19.295Z,995.61
2022-11-02T04:26:21.011Z,995.59
2022-11-02T04:27:22.768Z,995.61
2022-11-02T04:28:24.475Z,995.69
2022-11-02T04:29:26.222Z,995.65
2022-11-02T04:30:27.955Z,995.63
2022-11-02T04:31:29.685Z,995.68
2022-11-02T04:32:31.406Z,995.65
2022-11-02T04:33:33.152Z,995.66
2022-11-02T04:34:34.879Z,995.71
2022-11-02T04:35:36.639Z,995.68
2022-11-02T04:36:38.352Z,995.67
2022-11-02T04:37:40.087Z,995.68
2022-11-02T04:38:41.828Z,995.61
2022-11-02T04:39:43.560Z,995.68
2022-11-02T04:40:45.301Z,995.73
2022-11-02T04:41:47.051Z,995.72
2022-11-02T04:42:48.745Z,995.79
2022-11-02T04:43:50.506Z,995.71
2022-11-02T04:44:52.259Z,995.75
2022-11-02T04:45:53.953Z,995.81
2022-11-02T04:46:55.716Z,995.78
2022-11-02T04:47:57.471Z,995.81
2022-11-02T04:48:59.207Z,995.82
2022-11-02T04:50:00.891Z,995.88
2022-11-02T04:51:02.641Z,995.86
2022-11-02T04:52:04.397Z,995.9
2022-11-02T04:53:06.093Z,995.94
2022-11-02T04:54:07.841Z,995.97
2022-11-02T04:55:09.607Z,996.01
2022-11-02T04:56:11.309Z,995.97
2022-11-02T04:57:13.108Z,995.97
2022-11-02T04:58:14.783Z,995.97
2022-11-02T04:59:16.543Z,995.96
2022-11-02T05:00:18.240Z,995.98
2022-11-02T05:01:20.202Z,995.96
2022-11-02T05:02:21.924Z,995.95
2022-11-02T05:03:23.463Z,995.99
2022-11-02T05:04:25.192Z,995.99
2022-11-02T05:05:26.917Z,995.89
2022-11-02T05:06:28.676Z,995.89
2022-11-02T05:07:30.408Z,995.93
2022-11-02T05:08:32.160Z,996
2022-11-02T05:09:33.909Z,995.96
2022-11-02T05:10:35.633Z,995.84
2022-11-02T05:11:37.347Z,995.92
2022-11-02T05:12:39.070Z,995.95
2022-11-02T05:13:40.883Z,995.96
2022-11-02T05:14:42.548Z,995.98
2022-11-02T05:15:44.275Z,995.97
2022-11-02T05:16:46.032Z,996.06
2022-11-02T05:17:47.746Z,996.02
2022-11-02T05:18:49.497Z,996.06
2022-11-02T05:19:51.208Z,996.05
2022-11-02T05:20:52.964Z,996.07
2022-11-02T05:21:54.675Z,996.02
2022-11-02T05:22:56.433Z,996.08
2022-11-02T05:23:58.150Z,996.06
2022-11-02T05:24:59.913Z,996.12
2022-11-02T05:26:01.610Z,996.15
2022-11-02T05:27:03.364Z,996.16
2022-11-02T05:28:05.074Z,996.18
2022-11-02T05:29:06.811Z,996.2
2022-11-02T05:30:08.582Z,996.25
2022-11-02T05:31:10.314Z,996.25
2022-11-02T05:32:12.037Z,996.22
2022-11-02T05:33:13.749Z,996.24
2022-11-02T05:34:15.517Z,996.3
2022-11-02T05:35:17.233Z,996.24
2022-11-02T05:36:18.954Z,996.27
2022-11-02T05:37:20.696Z,996.28
2022-11-02T05:38:22.424Z,996.3
2022-11-02T05:39:24.190Z,996.33
2022-11-02T05:40:25.892Z,996.35
2022-11-02T05:41:27.633Z,996.34
2022-11-02T05:42:29.400Z,996.38
2022-11-02T05:43:31.101Z,996.37
2022-11-02T05:44:32.840Z,996.37
2022-11-02T05:45:34.581Z,996.38
2022-11-02T05:46:36.307Z,996.39
2022-11-02T05:47:38.037Z,996.37
2022-11-02T05:48:39.767Z,996.39
2022-11-02T05:49:41.585Z,996.38
2022-11-02T05:50:43.243Z,996.42
2022-11-02T05:51:44.984Z,996.44
2022-11-02T05:52:46.748Z,996.49
2022-11-02T05:53:48.454Z,996.54
2022-11-02T05:54:50.203Z,996.54
2022-11-02T05:55:51.941Z,996.54
2022-11-02T05:56:53.623Z,996.53
2022-11-02T05:57:55.376Z,996.55
2022-11-02T05:58:57.090Z,996.51
2022-11-02T05:59:58.838Z,996.55
2022-11-02T06:01:00.574Z,996.48
2022-11-02T06:02:02.366Z,996.56
2022-11-02T06:03:04.423Z,996.51
2022-11-02T06:04:05.790Z,996.55
2022-11-02T06:05:07.595Z,996.56
2022-11-02T06:06:09.262Z,996.53
2022-11-02T06:07:10.985Z,996.58
2022-11-02T06:08:12.685Z,996.55
2022-11-02T06:09:14.435Z,996.58
2022-11-02T06:10:16.159Z,996.59
2022-11-02T06:11:17.882Z,996.6
2022-11-02T06:12:19.618Z,996.61
2022-11-02T06:13:21.358Z,996.64
2022-11-02T06:14:23.095Z,996.6
2022-11-02T06:15:24.820Z,996.61
2022-11-02T06:16:26.546Z,996.58
2022-11-02T06:17:28.282Z,996.64
2022-11-02T06:18:30.049Z,996.65
2022-11-02T06:19:31.781Z,996.65
2022-11-02T06:20:33.498Z,996.66
2022-11-02T06:21:35.245Z,996.66
2022-11-02T06:22:36.970Z,996.67
2022-11-02T06:23:38.710Z,996.73
2022-11-02T06:24:40.486Z,996.75
2022-11-02T06:25:42.172Z,996.71
2022-11-02T06:26:43.905Z,996.72
2022-11-02T06:27:46.093Z,996.72
2022-11-02T06:28:47.425Z,996.73
2022-11-02T06:29:49.188Z,996.8
2022-11-02T06:30:50.904Z,996.75
2022-11-02T06:31:52.629Z,996.78
2022-11-02T06:32:54.364Z,996.78
2022-11-02T06:33:56.103Z,996.8
2022-11-02T06:34:57.838Z,996.86
2022-11-02T06:35:59.597Z,996.87
2022-11-02T06:37:01.300Z,996.84
2022-11-02T06:38:03.040Z,996.81
2022-11-02T06:39:04.780Z,996.86
2022-11-02T06:40:06.504Z,996.9
2022-11-02T06:41:08.252Z,996.96
2022-11-02T06:42:09.977Z,996.97
2022-11-02T06:43:16.668Z,997.01
2022-11-02T06:44:13.465Z,997.08
2022-11-02T06:45:15.218Z,997.09
2022-11-02T06:46:16.922Z,997.1
2022-11-02T06:47:18.654Z,997.09
2022-11-02T06:48:20.415Z,997.07
2022-11-02T06:49:22.161Z,997.11
2022-11-02T06:50:23.877Z,997.09
2022-11-02T06:51:25.585Z,997.13
2022-11-02T06:52:27.320Z,997.15
2022-11-02T06:53:29.065Z,997.14
2022-11-02T06:54:30.832Z,997.19
2022-11-02T06:55:32.571Z,997.17
2022-11-02T06:56:34.276Z,997.17
2022-11-02T06:57:35.997Z,997.19
2022-11-02T06:58:37.743Z,997.18
2022-11-02T06:59:39.503Z,997.2
2022-11-02T07:00:41.282Z,997.22
2022-11-02T07:01:43.097Z,997.23
2022-11-02T07:02:44.668Z,997.25
2022-11-02T07:03:46.411Z,997.21
2022-11-02T07:04:48.128Z,997.25
2022-11-02T07:05:49.878Z,997.23
2022-11-02T07:06:51.648Z,997.26
2022-11-02T07:07:53.377Z,997.25
2022-11-02T07:08:55.102Z,997.32
2022-11-02T07:09:56.859Z,997.37
2022-11-02T07:10:58.548Z,997.39
2022-11-02T07:12:00.290Z,997.42
2022-11-02T07:13:02.482Z,997.41
2022-11-02T07:14:03.755Z,997.44
2022-11-02T07:15:05.495Z,997.42
2022-11-02T07:16:07.270Z,997.48
2022-11-02T07:17:09.031Z,997.52
2022-11-02T07:18:10.725Z,997.56
2022-11-02T07:19:12.456Z,997.62
2022-11-02T07:20:14.158Z,997.62
2022-11-02T07:21:15.988Z,997.6
2022-11-02T07:22:17.671Z,997.62
2022-11-02T07:23:19.414Z,997.64
2022-11-02T07:24:21.140Z,997.63
2022-11-02T07:25:22.842Z,997.61
2022-11-02T07:26:24.580Z,997.61
2022-11-02T07:27:26.319Z,997.62
2022-11-02T07:28:28.058Z,997.61
2022-11-02T07:29:29.831Z,997.62
2022-11-02T07:30:31.558Z,997.68
2022-11-02T07:31:33.306Z,997.61
2022-11-02T07:32:34.988Z,997.66
2022-11-02T07:33:36.725Z,997.65
2022-11-02T07:34:38.499Z,997.68
2022-11-02T07:35:40.244Z,997.67
2022-11-02T07:36:41.974Z,997.68
2022-11-02T07:37:43.664Z,997.73
2022-11-02T07:38:45.433Z,997.7
2022-11-02T07:39:47.136Z,997.66
2022-11-02T07:40:48.896Z,997.77
2022-11-02T07:41:52.072Z,997.72
2022-11-02T07:42:52.406Z,997.72
2022-11-02T07:43:54.083Z,997.74
2022-11-02T07:44:55.811Z,997.76
2022-11-02T07:45:57.568Z,997.8
2022-11-02T07:46:59.290Z,997.67
2022-11-02T07:48:01.051Z,997.78
2022-11-02T07:49:02.791Z,997.74
2022-11-02T07:50:04.504Z,997.78
2022-11-02T07:51:06.222Z,997.78
2022-11-02T07:52:07.997Z,997.75
2022-11-02T07:53:09.713Z,997.78
2022-11-02T07:54:11.432Z,997.8
2022-11-02T07:55:13.201Z,997.82
2022-11-02T07:56:14.926Z,997.85
2022-11-02T07:57:16.626Z,997.82
2022-11-02T07:58:18.380Z,997.84
2022-11-02T07:59:20.125Z,997.84
2022-11-02T08:00:21.949Z,997.86
2022-11-02T08:01:23.666Z,997.85
2022-11-02T08:02:25.576Z,997.81
2022-11-02T08:03:27.212Z,997.83
2022-11-02T08:04:28.824Z,997.8
2022-11-02T08:05:30.541Z,997.87
2022-11-02T08:06:32.283Z,997.82
2022-11-02T08:07:33.985Z,997.85
2022-11-02T08:08:35.747Z,997.86
2022-11-02T08:09:37.445Z,997.91
2022-11-02T08:10:40.620Z,997.94
2022-11-02T08:11:40.954Z,997.88
2022-11-02T08:12:42.907Z,997.93
2022-11-02T08:13:44.429Z,997.95
2022-11-02T08:14:46.120Z,997.96
2022-11-02T08:15:47.858Z,997.91
2022-11-02T08:16:49.587Z,997.96
2022-11-02T08:17:51.358Z,997.92
2022-11-02T08:18:53.087Z,997.9
2022-11-02T08:19:54.798Z,997.89
2022-11-02T08:20:56.680Z,997.94
2022-11-02T08:21:58.275Z,997.97
2022-11-02T08:22:59.989Z,997.97
2022-11-02T08:24:01.761Z,997.95
2022-11-02T08:25:03.564Z,997.98
2022-11-02T08:26:05.205Z,997.97
2022-11-02T08:27:06.967Z,997.88
2022-11-02T08:28:08.994Z,997.88
2022-11-02T08:29:10.448Z,997.9
2022-11-02T08:30:12.147Z,997.87
2022-11-02T08:31:13.877Z,997.85
2022-11-02T08:32:15.604Z,997.88
2022-11-02T08:33:17.359Z,997.83
2022-11-02T08:34:19.115Z,997.89
2022-11-02T08:35:20.823Z,997.91
2022-11-02T08:36:22.550Z,997.89
2022-11-02T08:37:24.326Z,997.86
2022-11-02T08:38:26.021Z,997.92
2022-11-02T08:39:27.787Z,997.89
2022-11-02T08:40:29.517Z,997.91
2022-11-02T08:41:31.265Z,997.95
2022-11-02T08:42:32.960Z,997.9
2022-11-02T08:43:34.734Z,997.93
2022-11-02T08:44:41.487Z,997.93
2022-11-02T08:46:12.619Z,997.98
2022-11-02T08:46:39.896Z,997.97
2022-11-02T08:47:41.679Z,997.94
2022-11-02T08:48:43.376Z,997.91
2022-11-02T08:49:45.117Z,997.96
2022-11-02T08:50:46.834Z,997.95
2022-11-02T08:51:48.579Z,998.02
2022-11-02T08:52:50.305Z,998.02
2022-11-02T08:53:52.184Z,998.01
2022-11-02T08:54:53.834Z,998.04
2022-11-02T08:55:55.514Z,998.1
2022-11-02T08:56:57.255Z,998.12
2022-11-02T08:57:58.976Z,998.09
2022-11-02T08:59:00.718Z,998.15
2022-11-02T09:00:02.455Z,998.14
2022-11-02T09:01:04.213Z,998.13
2022-11-02T09:02:06.052Z,998.13
2022-11-02T09:03:07.712Z,998.21
2022-11-02T09:04:09.399Z,998.17
2022-11-02T09:05:11.160Z,998.11
2022-11-02T09:06:12.898Z,998.25
2022-11-02T09:07:14.580Z,998.21
2022-11-02T09:08:16.359Z,998.12
2022-11-02T09:09:18.066Z,998.13
2022-11-02T09:10:19.813Z,998.18
2022-11-02T09:11:21.577Z,998.13
2022-11-02T09:12:23.270Z,998.18
2022-11-02T09:13:25.214Z,998.25
2022-11-02T09:14:26.803Z,998.2
2022-11-02T09:15:28.516Z,998.24
2022-11-02T09:16:30.253Z,998.25
2022-11-02T09:17:31.976Z,998.27
2022-11-02T09:18:33.728Z,998.18
2022-11-02T09:19:35.490Z,998.21
2022-11-02T09:20:37.194Z,998.18
2022-11-02T09:21:38.881Z,998.18
2022-11-02T09:22:40.657Z,998.11
2022-11-02T09:23:42.389Z,998.14
2022-11-02T09:24:44.101Z,998.19
2022-11-02T09:25:45.996Z,998.21
2022-11-02T09:26:47.574Z,998.22
2022-11-02T09:27:54.356Z,998.22
2022-11-02T09:28:51.071Z,998.22
2022-11-02T09:29:52.817Z,998.21
2022-11-02T09:30:54.506Z,998.22
2022-11-02T09:31:56.245Z,998.22
2022-11-02T09:32:58.047Z,998.21
2022-11-02T09:33:59.706Z,998.24
2022-11-02T09:35:01.450Z,998.25
2022-11-02T09:36:03.175Z,998.3
2022-11-02T09:37:04.906Z,998.32
2022-11-02T09:38:06.649Z,998.29
2022-11-02T09:39:08.387Z,998.29
2022-11-02T09:40:10.143Z,998.3
2022-11-02T09:41:11.877Z,998.33
2022-11-02T09:42:13.622Z,998.36
2022-11-02T09:43:15.326Z,998.33
2022-11-02T09:44:17.070Z,998.36
2022-11-02T09:45:18.826Z,998.38
2022-11-02T09:46:20.567Z,998.42
2022-11-02T09:48:10.537Z,998.35
2022-11-02T09:48:28.341Z,998.39
2022-11-02T09:49:25.735Z,998.41
2022-11-02T09:51:29.233Z,998.48
2022-11-02T09:52:30.982Z,998.5
2022-11-02T09:53:32.710Z,998.47
2022-11-02T09:54:34.396Z,998.43
2022-11-02T09:55:36.153Z,998.45
2022-11-02T09:56:37.873Z,998.48
2022-11-02T09:57:39.645Z,998.47
2022-11-02T09:58:41.372Z,998.49
2022-11-02T09:59:43.069Z,998.44
2022-11-02T10:00:44.837Z,998.44
2022-11-02T10:01:46.633Z,998.51
2022-11-02T10:02:48.360Z,998.51
2022-11-02T10:03:50.022Z,998.56
2022-11-02T10:04:51.783Z,998.57
2022-11-02T10:05:53.486Z,998.6
2022-11-02T10:06:55.224Z,998.61
2022-11-02T10:07:56.964Z,998.62
2022-11-02T10:08:58.748Z,998.62
2022-11-02T10:10:00.424Z,998.6
2022-11-02T10:11:07.726Z,998.58
2022-11-02T10:12:03.904Z,998.63
2022-11-02T10:13:05.872Z,998.61
2022-11-02T10:14:07.371Z,998.64
2022-11-02T10:15:09.100Z,998.7
2022-11-02T10:16:10.878Z,998.61
2022-11-02T10:17:12.607Z,998.6
2022-11-02T10:18:14.348Z,998.58
2022-11-02T10:19:16.044Z,998.66
2022-11-02T10:20:17.785Z,998.64
2022-11-02T10:21:19.547Z,998.64
2022-11-02T10:22:21.288Z,998.6
2022-11-02T10:23:23.018Z,998.58
2022-11-02T10:24:24.978Z,998.61
2022-11-02T10:25:26.458Z,998.58
2022-11-02T10:26:28.189Z,998.63
2022-11-02T10:27:29.964Z,998.6
2022-11-02T10:28:31.688Z,998.51
2022-11-02T10:29:33.424Z,998.51
2022-11-02T10:30:35.132Z,998.53
2022-11-02T10:31:36.869Z,998.52
2022-11-02T10:32:38.652Z,998.51
2022-11-02T10:33:40.366Z,998.5
2022-11-02T10:34:42.087Z,998.53
2022-11-02T10:36:04.674Z,998.52
2022-11-02T10:36:45.539Z,998.52
2022-11-02T10:37:47.282Z,998.51
2022-11-02T10:38:49.003Z,998.48
2022-11-02T10:39:50.740Z,998.51
2022-11-02T10:40:52.516Z,998.45
2022-11-02T10:41:54.205Z,998.48
2022-11-02T10:42:55.944Z,998.44
2022-11-02T10:43:57.686Z,998.43
2022-11-02T10:44:59.461Z,998.39
2022-11-02T10:46:01.160Z,998.36
2022-11-02T10:47:02.924Z,998.34
2022-11-02T10:48:04.876Z,998.33
2022-11-02T10:49:06.361Z,998.42
2022-11-02T10:50:12.011Z,998.33
2022-11-02T10:51:09.854Z,998.34
2022-11-02T10:52:11.590Z,998.4
2022-11-02T10:53:39.525Z,998.39
2022-11-02T10:54:17.742Z,998.41
2022-11-02T10:55:16.774Z,998.36
2022-11-02T10:56:18.508Z,998.41
2022-11-02T10:57:20.237Z,998.51
2022-11-02T10:58:21.964Z,998.52
2022-11-02T10:59:23.720Z,998.49
2022-11-02T11:00:25.497Z,998.48
2022-11-02T11:01:27.399Z,998.47
2022-11-02T11:02:28.901Z,998.49
2022-11-02T11:03:30.839Z,998.47
2022-11-02T11:04:32.408Z,998.44
2022-11-02T11:05:34.118Z,998.44
2022-11-02T11:06:35.910Z,998.44
2022-11-02T11:07:37.577Z,998.44
2022-11-02T11:08:39.311Z,998.39
2022-11-02T11:09:46.445Z,998.42
2022-11-02T11:10:42.806Z,998.34
2022-11-02T11:11:44.525Z,998.37
2022-11-02T11:12:46.248Z,998.32
2022-11-02T11:15:51.488Z,998.32
2022-11-02T11:16:54.004Z,998.37
2022-11-02T11:20:00.319Z,998.33
2022-11-02T11:21:00.221Z,998.3
2022-11-02T11:22:01.913Z,998.33
2022-11-02T11:23:03.935Z,998.31
2022-11-02T11:24:05.357Z,998.27
2022-11-02T11:25:07.068Z,998.24
2022-11-02T11:26:08.834Z,998.23
2022-11-02T11:27:10.590Z,998.18
2022-11-02T11:28:12.319Z,998.14
2022-11-02T11:29:14.014Z,998.19
2022-11-02T11:30:24.009Z,998.19
2022-11-02T11:31:17.496Z,998.17
2022-11-02T11:32:19.252Z,998.17
2022-11-02T11:33:20.986Z,998.19
2022-11-02T11:34:22.727Z,998.24
2022-11-02T11:35:24.424Z,998.16
2022-11-02T11:37:27.890Z,998.23
2022-11-02T11:38:29.613Z,998.26
2022-11-02T11:39:31.338Z,998.28
2022-11-02T11:40:33.100Z,998.23
2022-11-02T11:41:34.813Z,998.21
2022-11-02T11:42:36.523Z,998.21
2022-11-02T11:43:38.334Z,998.17
2022-11-02T11:44:40.015Z,998.19
2022-11-02T11:45:41.745Z,998.16
2022-11-02T11:46:43.517Z,998.2
2022-11-02T11:47:45.165Z,998.21
2022-11-02T11:48:46.982Z,998.19
2022-11-02T11:50:07.710Z,998.14
2022-11-02T11:50:50.320Z,998.19
2022-11-02T11:51:52.216Z,998.15
2022-11-02T11:52:53.774Z,998.12
2022-11-02T11:53:55.490Z,998.13
2022-11-02T11:54:57.229Z,998.16
2022-11-02T11:55:58.959Z,998.17
2022-11-02T11:57:00.694Z,998.17
2022-11-02T11:58:02.770Z,998.17
2022-11-02T11:59:04.153Z,998.19
2022-11-02T12:00:05.874Z,998.13
2022-11-02T12:01:10.437Z,998.14
2022-11-02T12:02:09.469Z,998.15
2022-11-02T12:03:11.255Z,998.13
2022-11-02T12:04:12.792Z,998.11
2022-11-02T12:05:14.497Z,998.04
2022-11-02T12:06:16.242Z,998.04
2022-11-02T12:07:17.959Z,998.05
2022-11-02T12:08:19.734Z,998.12
2022-11-02T12:09:21.437Z,998.13
2022-11-02T12:10:23.152Z,998.13
2022-11-02T12:11:24.882Z,998.13
2022-11-02T12:12:26.612Z,998.15
2022-11-02T12:13:28.338Z,998.09
2022-11-02T12:14:30.073Z,998.08
2022-11-02T12:15:31.922Z,998.09
2022-11-02T12:16:33.528Z,998.02
2022-11-02T12:17:35.253Z,998.04
2022-11-02T12:18:36.987Z,998.06
2022-11-02T12:19:38.737Z,998.04
2022-11-02T12:20:40.435Z,998.01
2022-11-02T12:21:42.171Z,997.99
2022-11-02T12:22:43.899Z,997.97
2022-11-02T12:23:45.651Z,998
2022-11-02T12:24:47.378Z,998.03
2022-11-02T12:25:49.106Z,998.09
2022-11-02T12:26:50.869Z,998.04
2022-11-02T12:27:52.601Z,998.02
2022-11-02T12:28:54.351Z,998.03
2022-11-02T12:29:56.058Z,997.94
2022-11-02T12:30:57.778Z,997.87
2022-11-02T12:32:00.887Z,997.82
2022-11-02T12:33:01.284Z,997.84
2022-11-02T12:34:02.979Z,997.83
2022-11-02T12:35:28.873Z,997.88
2022-11-02T12:36:06.443Z,997.88
2022-11-02T12:37:40.313Z,997.93
2022-11-02T12:38:09.914Z,997.88
2022-11-02T12:39:11.661Z,997.93
2022-11-02T12:40:13.438Z,997.96
2022-11-02T12:41:15.111Z,997.99
2022-11-02T12:42:16.849Z,997.98
2022-11-02T12:43:18.591Z,998.03
2022-11-02T12:44:20.328Z,997.98
2022-11-02T12:45:22.056Z,998
2022-11-02T12:46:23.796Z,998.01
2022-11-02T12:47:25.527Z,998
2022-11-02T12:48:27.265Z,998
2022-11-02T12:49:29.534Z,998
2022-11-02T12:50:30.736Z,997.99
2022-11-02T12:51:32.509Z,998
2022-11-02T12:52:34.205Z,998.01
2022-11-02T12:53:35.939Z,998
2022-11-02T12:54:41.475Z,997.93
2022-11-02T12:55:39.469Z,997.97
2022-11-02T12:56:41.154Z,997.95
2022-11-02T12:57:42.902Z,997.9
2022-11-02T12:58:44.660Z,997.89
2022-11-02T12:59:46.358Z,997.84